Time;durP1;ratioP1;P1;durP2;ratioP2;P2;SDS_P1;SDS_P2;PMS_P1;PMS_P2;Temp;Humidity;BMP_temperature;BMP_pressure;BME280_temperature;BME280_humidity;BME280_pressure;Samples;Min_cycle;Max_cycle;Signal;HPM_P1;HPM_P2
2022/05/10 05:05:55;;;;;;;8.70;7.90;;;11.40;98.10;;;;;;6151147;23;20150;-86
2022/05/10 05:53:38;;;;;;;6.00;5.32;;;13.40;93.80;;;;;;6120129;23;20249;-88
2022/05/10 08:34:24;;;;;;;7.13;4.47;;;19.10;55.10;;;;;;6060603;23;20189;-90
2022/05/10 08:40:23;;;;;;;7.38;4.88;;;19.60;46.60;;;;;;5940447;24;20171;-90
2022/05/10 08:42:52;;;;;;;7.07;4.38;;;20.60;45.80;;;;;;5932300;24;20211;-86
2022/05/10 08:45:40;;;;;;;6.53;4.18;;;22.10;37.80;;;;;;5929220;24;20195;-85
2022/05/10 08:48:10;;;;;;;8.57;4.55;;;23.30;31.30;;;;;;5928830;24;20184;-86
2022/05/10 08:50:39;;;;;;;5.10;4.60;;;24.20;25.00;;;;;;5927386;24;20229;-87
2022/05/10 08:53:13;;;;;;;6.03;4.57;;;25.80;22.10;;;;;;5926624;24;20184;-77
2022/05/10 08:55:52;;;;;;;5.20;4.68;;;28.40;18.50;;;;;;6009079;23;20531;-78
2022/05/10 08:58:39;;;;;;;7.47;4.35;;;28.60;15.90;;;;;;6036766;23;20182;-79
2022/05/10 09:01:13;;;;;;;5.07;4.00;;;27.80;16.90;;;;;;6037425;23;20185;-77
2022/05/10 09:04:22;;;;;;;5.70;4.65;;;30.30;16.80;;;;;;6073252;23;20174;-78
2022/05/10 09:07:03;;;;;;;5.32;4.82;;;31.20;13.10;;;;;;6209402;23;20162;-78
2022/05/10 09:09:51;;;;;;;7.00;4.90;;;31.20;11.90;;;;;;6215863;23;20169;-81
2022/05/10 09:12:30;;;;;;;5.63;5.10;;;30.50;11.80;;;;;;6216151;23;20166;-77
2022/05/10 09:15:11;;;;;;;5.68;4.82;;;29.60;13.50;;;;;;6216609;23;20164;-77
2022/05/10 09:17:47;;;;;;;6.03;4.90;;;30.50;12.10;;;;;;6216457;23;20162;-77
2022/05/10 09:20:15;;;;;;;5.13;4.72;;;31.30;10.80;;;;;;6216123;23;20245;-80
2022/05/10 09:23:05;;;;;;;4.90;4.50;;;31.10;8.80;;;;;;6215358;23;20629;-78
2022/05/10 09:25:35;;;;;;;5.75;4.47;;;30.90;10.10;;;;;;6217826;23;20162;-77
2022/05/10 09:28:14;;;;;;;5.10;4.70;;;31.10;9.70;;;;;;6214844;23;20168;-78
2022/05/10 09:34:45;;;;;;;10.35;8.07;;;31.60;9.80;;;;;;6203491;23;20182;-76
2022/05/10 09:36:26;;;;;;;5.32;4.85;;;31.70;7.80;;;;;;6182696;23;20680;-79
2022/05/10 09:39:02;;;;;;;5.47;5.00;;;31.80;7.90;;;;;;6186050;23;20478;-78
2022/05/10 09:41:44;;;;;;;5.68;4.13;;;32.20;7.50;;;;;;6186199;23;20202;-78
2022/05/10 09:44:26;;;;;;;5.68;5.05;;;32.60;8.40;;;;;;6185803;23;20482;-78
2022/05/10 09:47:11;;;;;;;5.65;5.00;;;32.10;9.30;;;;;;6185386;23;20158;-80
2022/05/10 09:49:41;;;;;;;7.07;4.88;;;31.50;7.70;;;;;;6183815;23;20197;-79
2022/05/10 09:52:19;;;;;;;5.03;4.50;;;31.20;7.60;;;;;;6185182;23;20173;-79
2022/05/10 09:54:57;;;;;;;6.25;5.57;;;31.50;8.40;;;;;;6185977;23;20172;-79
2022/05/10 09:57:32;;;;;;;7.15;5.00;;;30.20;10.80;;;;;;6185957;23;20158;-79
2022/05/10 10:00:00;;;;;;;6.45;4.78;;;31.30;9.50;;;;;;6186352;23;20158;-79
2022/05/10 10:02:36;;;;;;;5.65;4.50;;;32.00;8.00;;;;;;6184886;23;20213;-78
2022/05/10 10:05:31;;;;;;;6.68;5.32;;;32.60;7.50;;;;;;6185588;23;20241;-78
2022/05/10 10:07:59;;;;;;;8.45;5.30;;;32.70;8.40;;;;;;6188718;23;20162;-79
2022/05/10 10:10:37;;;;;;;6.80;4.93;;;32.40;10.20;;;;;;6186439;23;20470;-79
2022/05/10 10:13:28;;;;;;;6.40;5.30;;;32.00;9.30;;;;;;6185969;23;20213;-77
2022/05/10 10:15:55;;;;;;;8.82;4.95;;;30.70;9.70;;;;;;6185454;23;20158;-78
2022/05/10 10:18:44;;;;;;;5.18;4.78;;;31.50;10.30;;;;;;6185355;23;20162;-78
2022/05/10 10:21:18;;;;;;;6.10;5.55;;;32.20;9.20;;;;;;6184614;23;20218;-77
2022/05/10 10:23:52;;;;;;;6.97;4.82;;;32.30;9.00;;;;;;6185318;23;20159;-77
2022/05/10 10:26:36;;;;;;;7.80;5.20;;;32.40;8.30;;;;;;6185057;23;20166;-77
2022/05/10 10:29:13;;;;;;;5.43;4.88;;;32.30;7.00;;;;;;6184701;23;20181;-77
2022/05/10 10:31:44;;;;;;;7.18;4.50;;;31.30;8.70;;;;;;6232098;23;20690;-79
2022/05/10 10:34:21;;;;;;;6.13;4.95;;;30.80;9.70;;;;;;6246253;23;20157;-79
2022/05/10 10:36:53;;;;;;;5.15;4.65;;;30.70;8.20;;;;;;6245417;23;20168;-79
2022/05/10 10:39:34;;;;;;;5.32;4.47;;;31.60;8.50;;;;;;6245720;23;20180;-79
2022/05/10 10:42:09;;;;;;;4.85;4.40;;;31.60;9.10;;;;;;6245248;22;20208;-78
2022/05/10 10:44:39;;;;;;;5.13;4.70;;;31.60;7.80;;;;;;6245168;23;20169;-78
2022/05/10 10:47:12;;;;;;;4.95;4.40;;;32.40;8.80;;;;;;6246036;23;20211;-78
2022/05/10 10:49:45;;;;;;;5.80;4.57;;;33.20;7.50;;;;;;6245457;23;20157;-78
2022/05/10 10:52:18;;;;;;;4.70;4.30;;;32.70;8.30;;;;;;6243572;23;20462;-81
2022/05/10 10:54:52;;;;;;;5.30;4.63;;;32.60;8.80;;;;;;6244783;23;20784;-79
2022/05/10 10:57:49;;;;;;;4.63;4.15;;;31.70;7.10;;;;;;6245178;23;20488;-78
2022/05/10 11:00:58;;;;;;;4.70;4.30;;;32.10;6.30;;;;;;6245476;23;20222;-77
2022/05/10 11:03:40;;;;;;;7.22;4.75;;;30.80;7.40;;;;;;6245223;23;20207;-78
2022/05/10 11:06:26;;;;;;;5.07;4.57;;;30.20;9.80;;;;;;6245315;23;20712;-77
2022/05/10 11:09:25;;;;;;;5.20;4.50;;;29.00;12.20;;;;;;6245736;23;20157;-77
2022/05/10 11:12:29;;;;;;;5.82;4.88;;;28.40;10.10;;;;;;6243644;23;20176;-78
2022/05/10 11:15:40;;;;;;;5.68;5.00;;;27.80;15.60;;;;;;6245770;23;20631;-77
2022/05/10 11:18:38;;;;;;;6.07;4.43;;;26.60;14.10;;;;;;6245748;23;20165;-79
2022/05/10 11:21:34;;;;;;;8.27;5.75;;;26.90;18.00;;;;;;6247018;23;20161;-81
2022/05/10 11:24:20;;;;;;;6.28;5.60;;;25.30;17.20;;;;;;6247929;23;20156;-81
2022/05/10 11:27:31;;;;;;;7.13;5.68;;;25.40;19.30;;;;;;6247995;23;20534;-80
2022/05/10 11:30:08;;;;;;;6.32;5.13;;;25.30;16.10;;;;;;6253187;23;20179;-80
2022/05/10 11:33:03;;;;;;;5.82;5.30;;;24.30;16.90;;;;;;6253680;23;20448;-80
2022/05/10 11:35:50;;;;;;;6.10;4.88;;;23.60;19.30;;;;;;6253723;23;20157;-83
2022/05/10 11:38:52;;;;;;;7.60;5.03;;;23.40;20.30;;;;;;6250354;23;20178;-83
2022/05/10 11:41:30;;;;;;;5.78;4.95;;;23.60;20.50;;;;;;6253582;22;20518;-83
2022/05/10 11:44:24;;;;;;;6.88;4.78;;;24.30;22.20;;;;;;6255844;23;20158;-83
2022/05/10 11:47:17;;;;;;;7.20;4.97;;;23.60;19.90;;;;;;6256775;23;20162;-83
2022/05/10 11:50:20;;;;;;;8.73;4.32;;;24.10;20.30;;;;;;6247996;23;20751;-82
2022/05/10 11:53:36;;;;;;;6.40;5.30;;;24.80;20.00;;;;;;6129582;23;20186;-84
2022/05/10 11:56:03;;;;;;;5.38;4.57;;;24.70;17.90;;;;;;6102849;23;20179;-84
2022/05/10 11:58:36;;;;;;;6.15;5.20;;;25.20;18.60;;;;;;6129034;23;20164;-83
2022/05/10 12:01:44;;;;;;;8.10;5.63;;;25.50;16.70;;;;;;6128550;23;20168;-85
2022/05/10 12:04:35;;;;;;;7.53;5.35;;;26.00;16.90;;;;;;6125836;23;20164;-82
2022/05/10 12:07:35;;;;;;;7.93;4.90;;;26.20;17.60;;;;;;6125141;23;20189;-82
2022/05/10 12:10:46;;;;;;;6.13;5.63;;;25.80;17.70;;;;;;6128194;23;20172;-81
2022/05/10 12:26:45;;;;;;;6.03;5.28;;;25.10;19.10;;;;;;6127634;23;20554;-81
2022/05/10 12:29:48;;;;;;;10.15;5.72;;;25.50;18.10;;;;;;6224289;23;20174;-83
2022/05/10 12:32:53;;;;;;;6.18;5.40;;;25.50;17.80;;;;;;6250654;23;20211;-83
2022/05/10 12:35:58;;;;;;;8.25;5.20;;;25.30;16.20;;;;;;6253638;23;20157;-81
2022/05/10 12:38:34;;;;;;;6.85;6.00;;;25.40;16.70;;;;;;6252984;23;20161;-82
2022/05/10 12:41:09;;;;;;;8.50;6.20;;;25.40;18.70;;;;;;6251886;22;20195;-83
2022/05/10 12:44:10;;;;;;;7.38;6.30;;;25.00;18.90;;;;;;6252343;23;20502;-83
2022/05/10 12:47:09;;;;;;;7.55;6.10;;;24.80;18.80;;;;;;6251247;23;20241;-84
2022/05/10 12:49:52;;;;;;;6.70;6.10;;;24.50;19.00;;;;;;6255481;23;20172;-84
2022/05/10 12:52:27;;;;;;;9.10;6.70;;;24.50;19.70;;;;;;6256592;23;20200;-83
2022/05/10 12:55:06;;;;;;;8.15;5.93;;;24.50;19.20;;;;;;6252823;23;20162;-83
2022/05/10 12:57:42;;;;;;;8.55;6.53;;;24.80;18.80;;;;;;6252579;23;20162;-84
2022/05/10 13:00:22;;;;;;;9.35;7.15;;;25.10;17.60;;;;;;6252568;23;20161;-84
2022/05/10 13:03:12;;;;;;;7.55;6.35;;;25.20;16.90;;;;;;6250417;23;20189;-83
2022/05/10 13:06:00;;;;;;;8.80;6.28;;;25.20;18.70;;;;;;6253047;23;20157;-84
2022/05/10 13:08:46;;;;;;;5.80;5.30;;;24.30;19.00;;;;;;6259613;23;20161;-84
2022/05/10 13:11:39;;;;;;;5.18;4.68;;;23.60;20.10;;;;;;6260009;23;20212;-84
2022/05/10 13:18:06;;;;;;;6.15;4.72;;;24.30;18.10;;;;;;6253890;23;20152;-82
2022/05/10 13:20:50;;;;;;;6.32;4.95;;;24.70;18.20;;;;;;6252157;23;20212;-84
2022/05/10 13:23:19;;;;;;;5.65;5.13;;;24.50;18.40;;;;;;6253773;23;20193;-90
2022/05/10 13:25:53;;;;;;;7.85;4.60;;;24.50;18.60;;;;;;6232147;23;20227;-90
2022/05/10 13:28:48;;;;;;;5.28;4.40;;;24.40;18.00;;;;;;6255312;23;20213;-91
2022/05/10 13:31:38;;;;;;;7.50;5.63;;;24.50;18.40;;;;;;6262584;23;20187;-88
2022/05/10 13:34:14;;;;;;;11.27;5.22;;;24.40;18.40;;;;;;6262492;23;20173;-87
2022/05/10 13:36:51;;;;;;;6.18;4.30;;;24.60;18.80;;;;;;6261394;23;20192;-88
2022/05/10 13:39:26;;;;;;;7.57;5.07;;;24.70;17.00;;;;;;6262753;23;20158;-90
2022/05/10 13:42:08;;;;;;;6.00;4.93;;;24.70;17.00;;;;;;6261352;22;20197;-87
2022/05/10 13:48:02;;;;;;;9.93;5.30;;;24.30;18.40;;;;;;6262496;23;20164;-87
2022/05/10 13:50:31;;;;;;;5.60;5.10;;;24.00;19.40;;;;;;6254920;23;20217;-89
2022/05/10 13:56:28;;;;;;;5.32;4.80;;;23.10;19.70;;;;;;6262056;23;20137;-88
2022/05/10 13:59:29;;;;;;;5.90;5.03;;;23.20;19.70;;;;;;6208349;23;20260;-89
2022/05/10 14:02:16;;;;;;;4.65;4.25;;;23.40;19.20;;;;;;6261005;23;20459;-89
2022/05/10 14:05:16;;;;;;;7.72;4.70;;;23.90;18.80;;;;;;6256091;23;20204;-89
2022/05/10 14:07:47;;;;;;;5.88;4.43;;;24.20;18.20;;;;;;6256016;23;20158;-89
2022/05/10 14:17:05;;;;;;;5.40;4.38;;;24.00;18.80;;;;;;6257969;23;20169;-90
2022/05/10 14:19:49;;;;;;;7.65;4.40;;;24.10;18.30;;;;;;6259622;23;20173;-90
2022/05/10 14:22:55;;;;;;;6.03;4.15;;;24.40;18.20;;;;;;6255346;23;20163;-90
2022/05/10 14:25:31;;;;;;;9.30;4.43;;;24.50;18.30;;;;;;6256981;23;20153;-91
2022/05/10 14:28:10;;;;;;;6.93;4.95;;;24.60;17.90;;;;;;6227324;23;20181;-90
2022/05/10 14:30:42;;;;;;;7.68;4.78;;;24.40;17.50;;;;;;6252626;23;20220;-94
2022/05/10 14:33:54;;;;;;;4.72;4.32;;;24.50;17.30;;;;;;6252034;23;20169;-89
2022/05/10 14:36:26;;;;;;;5.78;4.78;;;24.50;17.40;;;;;;6251899;23;20615;-88
2022/05/10 14:39:08;;;;;;;5.45;4.35;;;24.40;16.60;;;;;;6252646;23;20161;-88
2022/05/10 14:41:47;;;;;;;5.57;4.65;;;24.40;17.20;;;;;;6251131;22;20222;-88
2022/05/10 14:44:41;;;;;;;5.40;4.70;;;24.40;16.30;;;;;;6251078;23;20657;-89
2022/05/10 14:47:20;;;;;;;7.47;4.25;;;24.30;17.70;;;;;;6251805;23;20598;-89
2022/05/10 14:49:48;;;;;;;4.80;4.40;;;24.20;17.70;;;;;;6255320;23;20157;-89
2022/05/10 14:53:07;;;;;;;6.30;4.50;;;24.10;17.90;;;;;;6256071;23;20161;-90
2022/05/10 14:56:13;;;;;;;4.60;4.20;;;24.20;18.10;;;;;;6256580;23;20586;-89
2022/05/10 14:58:53;;;;;;;4.72;3.92;;;24.20;18.50;;;;;;6255035;23;20166;-89
2022/05/10 15:01:35;;;;;;;6.80;3.88;;;24.40;18.10;;;;;;6228114;23;20198;-89
2022/05/10 15:14:11;;;;;;;4.60;4.20;;;24.10;18.00;;;;;;6256104;23;20169;-87
2022/05/10 15:37:27;;;;;;;3.90;3.45;;;24.20;17.50;;;;;;6255758;22;20165;-88
2022/05/10 15:51:17;;;;;;;3.40;3.10;;;24.10;18.20;;;;;;6228085;23;20137;-90
2022/05/10 16:07:23;;;;;;;4.20;2.72;;;23.50;17.30;;;;;;6134819;23;20613;-93
2022/05/10 16:09:53;;;;;;;4.10;3.05;;;23.40;15.50;;;;;;6125675;23;20214;-94
2022/05/10 16:12:25;;;;;;;4.93;2.53;;;23.40;18.20;;;;;;6123491;23;20176;-94
2022/05/10 16:18:36;;;;;;;4.30;2.70;;;23.20;17.20;;;;;;6128945;23;20490;-91
2022/05/10 16:21:05;;;;;;;4.00;2.95;;;23.10;17.10;;;;;;6128351;23;20192;-90
2022/05/10 16:23:32;;;;;;;4.30;2.80;;;23.00;17.60;;;;;;6131263;23;20183;-92
2022/05/10 16:25:59;;;;;;;3.20;2.90;;;23.00;17.40;;;;;;6129059;23;20183;-90
2022/05/10 16:31:15;;;;;;;4.40;2.97;;;22.90;19.70;;;;;;6103342;23;20169;-92
2022/05/10 16:33:42;;;;;;;4.40;2.75;;;22.90;17.40;;;;;;6102091;23;20193;-93
2022/05/10 16:36:13;;;;;;;2.47;2.28;;;22.90;17.00;;;;;;6102458;23;20220;-94
2022/05/10 16:39:00;;;;;;;2.95;2.60;;;22.90;17.20;;;;;;6148311;23;20175;-93
2022/05/10 16:41:36;;;;;;;2.80;2.55;;;22.80;17.40;;;;;;6165092;23;20198;-95
2022/05/10 17:27:56;;;;;;;4.70;2.95;;;21.20;20.30;;;;;;6085124;23;20173;-92
2022/05/10 17:33:49;;;;;;;3.25;2.95;;;21.10;20.50;;;;;;6018527;23;20175;-90
2022/05/10 17:41:53;;;;;;;4.32;3.92;;;20.80;23.80;;;;;;5959530;24;20280;-91
2022/05/10 17:44:20;;;;;;;4.78;3.25;;;20.70;23.60;;;;;;5971608;24;20271;-90
2022/05/10 17:47:12;;;;;;;5.72;3.70;;;20.60;23.30;;;;;;5970285;24;20209;-91
2022/05/10 17:49:56;;;;;;;4.78;3.30;;;20.50;24.00;;;;;;5971739;24;20235;-91
2022/05/10 17:52:50;;;;;;;5.78;3.53;;;20.40;24.00;;;;;;5987068;24;20204;-90
2022/05/10 17:55:58;;;;;;;17.27;13.40;;;20.40;24.50;;;;;;6033812;23;20180;-91
2022/05/10 18:02:38;;;;;;;5.38;3.85;;;20.20;26.70;;;;;;6146761;23;20175;-90
2022/05/10 18:11:53;;;;;;;5.60;3.70;;;19.80;27.80;;;;;;5990867;23;20224;-90
2022/05/10 19:35:29;;;;;;;6.85;5.28;;;17.70;46.90;;;;;;6268921;23;20168;-92
